sensor_id;sensor_type;location;lat;lon;timestamp;temperature;humidity
25092;DHT22;13082;52.374;4.946;2023-12-29T00:01:54;10.70;99.90
25092;DHT22;13082;52.374;4.946;2023-12-29T00:04:20;10.70;99.90
25092;DHT22;13082;52.374;4.946;2023-12-29T00:06:45;10.70;99.90
25092;DHT22;13082;52.374;4.946;2023-12-29T00:09:11;10.70;99.90
25092;DHT22;13082;52.374;4.946;2023-12-29T00:11:38;10.70;99.90
25092;DHT22;13082;52.374;4.946;2023-12-29T00:14:04;10.70;99.90
25092;DHT22;13082;52.374;4.946;2023-12-29T00:16:30;10.70;99.90
25092;DHT22;13082;52.374;4.946;2023-12-29T00:18:56;10.70;99.90
25092;DHT22;13082;52.374;4.946;2023-12-29T00:21:22;10.80;99.90
25092;DHT22;13082;52.374;4.946;2023-12-29T00:23:47;10.80;99.90
25092;DHT22;13082;52.374;4.946;2023-12-29T00:26:16;10.90;99.90
25092;DHT22;13082;52.374;4.946;2023-12-29T00:28:42;11.00;99.90
25092;DHT22;13082;52.374;4.946;2023-12-29T00:31:08;11.00;99.90
25092;DHT22;13082;52.374;4.946;2023-12-29T00:33:34;11.00;99.90
25092;DHT22;13082;52.374;4.946;2023-12-29T00:36:00;11.00;99.90
25092;DHT22;13082;52.374;4.946;2023-12-29T00:38:27;11.00;99.90
25092;DHT22;13082;52.374;4.946;2023-12-29T00:40:56;10.90;99.90
25092;DHT22;13082;52.374;4.946;2023-12-29T00:43:21;10.80;99.90
25092;DHT22;13082;52.374;4.946;2023-12-29T00:45:48;10.80;99.90
25092;DHT22;13082;52.374;4.946;2023-12-29T00:48:13;10.80;99.90
25092;DHT22;13082;52.374;4.946;2023-12-29T00:50:39;10.70;99.90
25092;DHT22;13082;52.374;4.946;2023-12-29T00:53:04;10.70;99.90
25092;DHT22;13082;52.374;4.946;2023-12-29T00:55:30;10.60;99.90
25092;DHT22;13082;52.374;4.946;2023-12-29T00:57:56;10.60;99.90
25092;DHT22;13082;52.374;4.946;2023-12-29T01:00:21;10.60;99.90
25092;DHT22;13082;52.374;4.946;2023-12-29T01:02:47;10.60;99.90
25092;DHT22;13082;52.374;4.946;2023-12-29T01:05:16;10.60;99.90
25092;DHT22;13082;52.374;4.946;2023-12-29T01:07:44;10.60;99.90
25092;DHT22;13082;52.374;4.946;2023-12-29T01:10:10;10.60;99.90
25092;DHT22;13082;52.374;4.946;2023-12-29T01:12:36;10.60;99.90
25092;DHT22;13082;52.374;4.946;2023-12-29T01:15:01;10.60;99.90
25092;DHT22;13082;52.374;4.946;2023-12-29T01:17:27;10.70;99.90
25092;DHT22;13082;52.374;4.946;2023-12-29T01:19:54;10.70;99.90
25092;DHT22;13082;52.374;4.946;2023-12-29T01:22:19;10.70;99.90
25092;DHT22;13082;52.374;4.946;2023-12-29T01:24:45;10.70;99.90
25092;DHT22;13082;52.374;4.946;2023-12-29T01:27:11;10.80;99.90
25092;DHT22;13082;52.374;4.946;2023-12-29T01:29:36;10.80;99.90
25092;DHT22;13082;52.374;4.946;2023-12-29T01:32:02;10.80;99.90
25092;DHT22;13082;52.374;4.946;2023-12-29T01:34:29;10.90;99.90
25092;DHT22;13082;52.374;4.946;2023-12-29T01:36:58;10.90;99.90
25092;DHT22;13082;52.374;4.946;2023-12-29T01:39:24;10.90;99.90
25092;DHT22;13082;52.374;4.946;2023-12-29T01:41:50;10.90;99.90
25092;DHT22;13082;52.374;4.946;2023-12-29T01:44:20;10.90;99.90
25092;DHT22;13082;52.374;4.946;2023-12-29T01:46:47;11.00;99.90
25092;DHT22;13082;52.374;4.946;2023-12-29T01:49:15;11.00;99.90
25092;DHT22;13082;52.374;4.946;2023-12-29T01:51:43;11.00;99.90
25092;DHT22;13082;52.374;4.946;2023-12-29T01:54:09;11.00;99.90
25092;DHT22;13082;52.374;4.946;2023-12-29T01:56:35;11.00;99.90
25092;DHT22;13082;52.374;4.946;2023-12-29T01:59:01;11.00;99.90
25092;DHT22;13082;52.374;4.946;2023-12-29T02:01:27;11.10;99.90
25092;DHT22;13082;52.374;4.946;2023-12-29T02:03:53;11.10;99.90
25092;DHT22;13082;52.374;4.946;2023-12-29T02:06:19;11.10;99.90
25092;DHT22;13082;52.374;4.946;2023-12-29T02:08:47;11.10;99.90
25092;DHT22;13082;52.374;4.946;2023-12-29T02:11:14;11.20;99.90
25092;DHT22;13082;52.374;4.946;2023-12-29T02:13:39;11.10;99.90
25092;DHT22;13082;52.374;4.946;2023-12-29T02:16:30;11.20;99.90
25092;DHT22;13082;52.374;4.946;2023-12-29T02:18:59;11.20;99.90
25092;DHT22;13082;52.374;4.946;2023-12-29T02:21:26;11.20;99.90
25092;DHT22;13082;52.374;4.946;2023-12-29T02:23:52;11.30;99.90
25092;DHT22;13082;52.374;4.946;2023-12-29T02:26:20;11.20;99.90
25092;DHT22;13082;52.374;4.946;2023-12-29T02:28:53;11.20;99.90
25092;DHT22;13082;52.374;4.946;2023-12-29T02:31:24;11.20;99.90
25092;DHT22;13082;52.374;4.946;2023-12-29T02:33:53;11.10;99.90
25092;DHT22;13082;52.374;4.946;2023-12-29T02:36:22;11.10;99.90
25092;DHT22;13082;52.374;4.946;2023-12-29T02:38:49;11.20;99.90
25092;DHT22;13082;52.374;4.946;2023-12-29T02:41:15;11.20;99.90
25092;DHT22;13082;52.374;4.946;2023-12-29T02:43:40;11.20;99.90
25092;DHT22;13082;52.374;4.946;2023-12-29T02:46:06;11.20;99.90
25092;DHT22;13082;52.374;4.946;2023-12-29T02:48:32;11.20;99.90
25092;DHT22;13082;52.374;4.946;2023-12-29T02:50:57;11.30;99.90
25092;DHT22;13082;52.374;4.946;2023-12-29T02:53:23;11.30;99.90
25092;DHT22;13082;52.374;4.946;2023-12-29T02:55:48;11.30;99.90
25092;DHT22;13082;52.374;4.946;2023-12-29T02:58:14;11.40;99.90
25092;DHT22;13082;52.374;4.946;2023-12-29T03:00:39;11.40;99.90
25092;DHT22;13082;52.374;4.946;2023-12-29T03:03:05;11.40;99.90
25092;DHT22;13082;52.374;4.946;2023-12-29T03:05:31;11.40;99.90
25092;DHT22;13082;52.374;4.946;2023-12-29T03:07:56;11.40;99.90
25092;DHT22;13082;52.374;4.946;2023-12-29T03:10:23;11.40;99.90
25092;DHT22;13082;52.374;4.946;2023-12-29T03:12:49;11.40;99.90
25092;DHT22;13082;52.374;4.946;2023-12-29T03:15:15;11.40;99.90
25092;DHT22;13082;52.374;4.946;2023-12-29T03:17:40;11.30;99.90
25092;DHT22;13082;52.374;4.946;2023-12-29T03:20:06;11.30;99.90
25092;DHT22;13082;52.374;4.946;2023-12-29T03:22:33;11.30;99.90
25092;DHT22;13082;52.374;4.946;2023-12-29T03:24:58;11.30;99.90
25092;DHT22;13082;52.374;4.946;2023-12-29T03:27:24;11.30;99.90
25092;DHT22;13082;52.374;4.946;2023-12-29T03:29:50;11.30;99.90
25092;DHT22;13082;52.374;4.946;2023-12-29T03:32:15;11.30;99.90
25092;DHT22;13082;52.374;4.946;2023-12-29T03:34:41;11.20;99.90
25092;DHT22;13082;52.374;4.946;2023-12-29T03:37:06;11.30;99.90
25092;DHT22;13082;52.374;4.946;2023-12-29T03:39:32;11.30;99.90
25092;DHT22;13082;52.374;4.946;2023-12-29T03:42:01;11.30;99.90
25092;DHT22;13082;52.374;4.946;2023-12-29T03:44:26;11.30;99.90
25092;DHT22;13082;52.374;4.946;2023-12-29T03:46:52;11.30;99.90
25092;DHT22;13082;52.374;4.946;2023-12-29T03:49:17;11.30;99.90
25092;DHT22;13082;52.374;4.946;2023-12-29T03:51:45;11.20;99.90
25092;DHT22;13082;52.374;4.946;2023-12-29T03:54:11;11.30;99.90
25092;DHT22;13082;52.374;4.946;2023-12-29T03:56:37;11.20;99.90
25092;DHT22;13082;52.374;4.946;2023-12-29T03:59:03;11.30;99.90
25092;DHT22;13082;52.374;4.946;2023-12-29T04:01:28;11.30;99.90
25092;DHT22;13082;52.374;4.946;2023-12-29T04:03:54;11.30;99.90
25092;DHT22;13082;52.374;4.946;2023-12-29T04:06:19;11.20;99.90
25092;DHT22;13082;52.374;4.946;2023-12-29T04:08:45;11.30;99.90
25092;DHT22;13082;52.374;4.946;2023-12-29T04:11:11;11.30;99.90
25092;DHT22;13082;52.374;4.946;2023-12-29T04:13:37;11.30;99.90
25092;DHT22;13082;52.374;4.946;2023-12-29T04:16:03;11.30;99.90
25092;DHT22;13082;52.374;4.946;2023-12-29T04:18:29;11.30;99.90
25092;DHT22;13082;52.374;4.946;2023-12-29T04:20:54;11.30;99.90
25092;DHT22;13082;52.374;4.946;2023-12-29T04:23:20;11.30;99.90
25092;DHT22;13082;52.374;4.946;2023-12-29T04:25:45;11.40;99.90
25092;DHT22;13082;52.374;4.946;2023-12-29T04:28:11;11.40;99.90
25092;DHT22;13082;52.374;4.946;2023-12-29T04:30:37;11.40;99.90
25092;DHT22;13082;52.374;4.946;2023-12-29T04:33:03;11.40;99.90
25092;DHT22;13082;52.374;4.946;2023-12-29T04:35:28;11.40;99.90
25092;DHT22;13082;52.374;4.946;2023-12-29T04:37:54;11.40;99.90
25092;DHT22;13082;52.374;4.946;2023-12-29T04:40:19;11.40;99.90
25092;DHT22;13082;52.374;4.946;2023-12-29T04:42:45;11.40;99.90
25092;DHT22;13082;52.374;4.946;2023-12-29T04:45:11;11.40;99.90
25092;DHT22;13082;52.374;4.946;2023-12-29T04:47:37;11.40;99.90
25092;DHT22;13082;52.374;4.946;2023-12-29T04:50:03;11.30;99.90
25092;DHT22;13082;52.374;4.946;2023-12-29T04:52:29;11.30;99.90
25092;DHT22;13082;52.374;4.946;2023-12-29T04:54:54;11.30;99.90
25092;DHT22;13082;52.374;4.946;2023-12-29T04:57:20;11.30;99.90
25092;DHT22;13082;52.374;4.946;2023-12-29T04:59:46;11.30;99.90
25092;DHT22;13082;52.374;4.946;2023-12-29T05:02:11;11.30;99.90
25092;DHT22;13082;52.374;4.946;2023-12-29T05:04:37;11.30;99.90
25092;DHT22;13082;52.374;4.946;2023-12-29T05:07:08;11.30;99.90
25092;DHT22;13082;52.374;4.946;2023-12-29T05:09:33;11.30;99.90
25092;DHT22;13082;52.374;4.946;2023-12-29T05:11:59;11.30;99.90
25092;DHT22;13082;52.374;4.946;2023-12-29T05:14:24;11.30;99.90
25092;DHT22;13082;52.374;4.946;2023-12-29T05:16:50;11.30;99.90
25092;DHT22;13082;52.374;4.946;2023-12-29T05:19:16;11.30;99.90
25092;DHT22;13082;52.374;4.946;2023-12-29T05:21:41;11.40;99.90
25092;DHT22;13082;52.374;4.946;2023-12-29T05:24:07;11.40;99.90
25092;DHT22;13082;52.374;4.946;2023-12-29T05:26:33;11.40;99.90
25092;DHT22;13082;52.374;4.946;2023-12-29T05:28:59;11.40;99.90
25092;DHT22;13082;52.374;4.946;2023-12-29T05:31:24;11.40;99.90
25092;DHT22;13082;52.374;4.946;2023-12-29T05:33:50;11.40;99.90
25092;DHT22;13082;52.374;4.946;2023-12-29T05:36:16;11.40;99.90
25092;DHT22;13082;52.374;4.946;2023-12-29T05:38:45;11.40;99.90
25092;DHT22;13082;52.374;4.946;2023-12-29T05:41:13;11.40;99.90
25092;DHT22;13082;52.374;4.946;2023-12-29T05:43:39;11.40;99.90
25092;DHT22;13082;52.374;4.946;2023-12-29T05:46:09;11.40;99.90
25092;DHT22;13082;52.374;4.946;2023-12-29T05:48:37;11.40;99.90
25092;DHT22;13082;52.374;4.946;2023-12-29T05:51:11;11.40;99.90
25092;DHT22;13082;52.374;4.946;2023-12-29T05:53:39;11.40;99.90
25092;DHT22;13082;52.374;4.946;2023-12-29T05:56:05;11.40;99.90
25092;DHT22;13082;52.374;4.946;2023-12-29T05:58:31;11.40;99.90
25092;DHT22;13082;52.374;4.946;2023-12-29T06:00:56;11.40;99.90
25092;DHT22;13082;52.374;4.946;2023-12-29T06:03:24;11.40;99.90
25092;DHT22;13082;52.374;4.946;2023-12-29T06:05:49;11.40;99.90
25092;DHT22;13082;52.374;4.946;2023-12-29T06:08:15;11.40;99.90
25092;DHT22;13082;52.374;4.946;2023-12-29T06:10:41;11.40;99.90
25092;DHT22;13082;52.374;4.946;2023-12-29T06:13:06;11.40;99.90
25092;DHT22;13082;52.374;4.946;2023-12-29T06:15:32;11.40;99.90
25092;DHT22;13082;52.374;4.946;2023-12-29T06:17:57;11.50;99.90
25092;DHT22;13082;52.374;4.946;2023-12-29T06:20:24;11.50;99.90
25092;DHT22;13082;52.374;4.946;2023-12-29T06:22:49;11.50;99.90
25092;DHT22;13082;52.374;4.946;2023-12-29T06:25:15;11.50;99.90
25092;DHT22;13082;52.374;4.946;2023-12-29T06:27:41;11.50;99.90
25092;DHT22;13082;52.374;4.946;2023-12-29T06:30:07;11.50;99.90
25092;DHT22;13082;52.374;4.946;2023-12-29T06:32:34;11.50;99.90
25092;DHT22;13082;52.374;4.946;2023-12-29T06:34:59;11.50;99.90
25092;DHT22;13082;52.374;4.946;2023-12-29T06:37:25;11.40;99.90
25092;DHT22;13082;52.374;4.946;2023-12-29T06:39:51;11.40;99.90
25092;DHT22;13082;52.374;4.946;2023-12-29T06:42:16;11.40;99.90
25092;DHT22;13082;52.374;4.946;2023-12-29T06:44:42;11.50;99.90
25092;DHT22;13082;52.374;4.946;2023-12-29T06:47:08;11.50;99.90
25092;DHT22;13082;52.374;4.946;2023-12-29T06:49:35;11.50;99.90
25092;DHT22;13082;52.374;4.946;2023-12-29T06:52:01;11.50;99.90
25092;DHT22;13082;52.374;4.946;2023-12-29T06:54:26;11.60;99.90
25092;DHT22;13082;52.374;4.946;2023-12-29T06:56:52;11.50;99.90
25092;DHT22;13082;52.374;4.946;2023-12-29T06:59:18;11.50;99.90
25092;DHT22;13082;52.374;4.946;2023-12-29T07:01:45;11.50;99.90
25092;DHT22;13082;52.374;4.946;2023-12-29T07:04:11;11.40;99.90
25092;DHT22;13082;52.374;4.946;2023-12-29T07:06:37;11.40;99.90
25092;DHT22;13082;52.374;4.946;2023-12-29T07:09:03;11.50;99.90
25092;DHT22;13082;52.374;4.946;2023-12-29T07:11:29;11.50;99.90
25092;DHT22;13082;52.374;4.946;2023-12-29T07:13:55;11.50;99.90
25092;DHT22;13082;52.374;4.946;2023-12-29T07:16:20;11.50;99.90
25092;DHT22;13082;52.374;4.946;2023-12-29T07:18:46;11.50;99.90
25092;DHT22;13082;52.374;4.946;2023-12-29T07:21:12;11.50;99.90
25092;DHT22;13082;52.374;4.946;2023-12-29T07:23:39;11.50;99.90
25092;DHT22;13082;52.374;4.946;2023-12-29T07:26:04;11.40;99.90
25092;DHT22;13082;52.374;4.946;2023-12-29T07:28:31;11.50;99.90
25092;DHT22;13082;52.374;4.946;2023-12-29T07:30:57;11.50;99.90
25092;DHT22;13082;52.374;4.946;2023-12-29T07:33:23;11.50;99.90
25092;DHT22;13082;52.374;4.946;2023-12-29T07:35:49;11.40;99.90
25092;DHT22;13082;52.374;4.946;2023-12-29T07:38:15;11.40;99.90
25092;DHT22;13082;52.374;4.946;2023-12-29T07:40:41;11.40;99.90
25092;DHT22;13082;52.374;4.946;2023-12-29T07:43:07;11.40;99.90
25092;DHT22;13082;52.374;4.946;2023-12-29T07:45:33;11.40;99.90
25092;DHT22;13082;52.374;4.946;2023-12-29T07:47:58;11.40;99.90
25092;DHT22;13082;52.374;4.946;2023-12-29T07:50:24;11.40;99.90
25092;DHT22;13082;52.374;4.946;2023-12-29T07:52:50;11.40;99.90
25092;DHT22;13082;52.374;4.946;2023-12-29T07:55:15;11.40;99.90
25092;DHT22;13082;52.374;4.946;2023-12-29T07:57:44;11.40;99.90
25092;DHT22;13082;52.374;4.946;2023-12-29T08:00:10;11.40;99.90
25092;DHT22;13082;52.374;4.946;2023-12-29T08:02:35;11.40;99.90
25092;DHT22;13082;52.374;4.946;2023-12-29T08:05:02;11.50;99.90
25092;DHT22;13082;52.374;4.946;2023-12-29T08:07:27;11.50;99.90
25092;DHT22;13082;52.374;4.946;2023-12-29T08:09:53;11.50;99.90
25092;DHT22;13082;52.374;4.946;2023-12-29T08:12:18;11.60;99.90
25092;DHT22;13082;52.374;4.946;2023-12-29T08:14:44;11.60;99.90
25092;DHT22;13082;52.374;4.946;2023-12-29T08:17:10;11.60;99.90
25092;DHT22;13082;52.374;4.946;2023-12-29T08:19:36;11.60;99.90
25092;DHT22;13082;52.374;4.946;2023-12-29T08:22:02;11.60;99.90
25092;DHT22;13082;52.374;4.946;2023-12-29T08:24:28;11.60;99.90
25092;DHT22;13082;52.374;4.946;2023-12-29T08:26:53;11.50;99.90
25092;DHT22;13082;52.374;4.946;2023-12-29T08:29:19;11.50;99.90
25092;DHT22;13082;52.374;4.946;2023-12-29T08:31:45;11.50;99.90
25092;DHT22;13082;52.374;4.946;2023-12-29T08:34:10;11.50;99.90
25092;DHT22;13082;52.374;4.946;2023-12-29T08:36:36;11.50;99.90
25092;DHT22;13082;52.374;4.946;2023-12-29T08:39:02;11.40;99.90
25092;DHT22;13082;52.374;4.946;2023-12-29T08:41:27;11.40;99.90
25092;DHT22;13082;52.374;4.946;2023-12-29T08:43:53;11.40;99.90
25092;DHT22;13082;52.374;4.946;2023-12-29T08:46:19;11.30;99.90
25092;DHT22;13082;52.374;4.946;2023-12-29T08:48:46;11.30;99.90
25092;DHT22;13082;52.374;4.946;2023-12-29T08:51:11;11.40;99.90
25092;DHT22;13082;52.374;4.946;2023-12-29T08:53:37;11.40;99.90
25092;DHT22;13082;52.374;4.946;2023-12-29T08:56:02;11.40;99.90
25092;DHT22;13082;52.374;4.946;2023-12-29T08:58:29;11.40;99.90
25092;DHT22;13082;52.374;4.946;2023-12-29T09:00:55;11.40;99.90
25092;DHT22;13082;52.374;4.946;2023-12-29T09:03:20;11.40;99.90
25092;DHT22;13082;52.374;4.946;2023-12-29T09:05:46;11.40;99.90
25092;DHT22;13082;52.374;4.946;2023-12-29T09:08:12;11.50;99.90
25092;DHT22;13082;52.374;4.946;2023-12-29T09:10:37;11.50;99.90
25092;DHT22;13082;52.374;4.946;2023-12-29T09:13:04;11.50;99.90
25092;DHT22;13082;52.374;4.946;2023-12-29T09:15:29;11.50;99.90
25092;DHT22;13082;52.374;4.946;2023-12-29T09:17:55;11.50;99.90
25092;DHT22;13082;52.374;4.946;2023-12-29T09:20:21;11.50;99.90
25092;DHT22;13082;52.374;4.946;2023-12-29T09:22:46;11.50;99.90
25092;DHT22;13082;52.374;4.946;2023-12-29T09:25:12;11.50;99.90
25092;DHT22;13082;52.374;4.946;2023-12-29T09:27:38;11.60;99.90
25092;DHT22;13082;52.374;4.946;2023-12-29T09:30:04;11.50;99.90
25092;DHT22;13082;52.374;4.946;2023-12-29T09:32:30;11.50;99.90
25092;DHT22;13082;52.374;4.946;2023-12-29T09:34:55;11.40;99.90
25092;DHT22;13082;52.374;4.946;2023-12-29T09:37:22;11.40;99.90
25092;DHT22;13082;52.374;4.946;2023-12-29T09:39:48;11.40;99.90
25092;DHT22;13082;52.374;4.946;2023-12-29T09:42:21;11.40;99.90
25092;DHT22;13082;52.374;4.946;2023-12-29T09:44:51;11.40;99.90
25092;DHT22;13082;52.374;4.946;2023-12-29T09:47:22;11.40;99.90
25092;DHT22;13082;52.374;4.946;2023-12-29T09:49:53;11.40;99.90
25092;DHT22;13082;52.374;4.946;2023-12-29T09:52:20;11.40;99.90
25092;DHT22;13082;52.374;4.946;2023-12-29T09:54:49;11.40;99.90
25092;DHT22;13082;52.374;4.946;2023-12-29T09:57:16;11.40;99.90
25092;DHT22;13082;52.374;4.946;2023-12-29T09:59:42;11.40;99.90
25092;DHT22;13082;52.374;4.946;2023-12-29T10:02:14;11.40;99.90
25092;DHT22;13082;52.374;4.946;2023-12-29T10:04:40;11.40;99.90
25092;DHT22;13082;52.374;4.946;2023-12-29T10:07:06;11.50;99.90
25092;DHT22;13082;52.374;4.946;2023-12-29T10:09:34;11.50;99.90
25092;DHT22;13082;52.374;4.946;2023-12-29T10:12:02;11.50;99.90
25092;DHT22;13082;52.374;4.946;2023-12-29T10:14:56;11.50;99.90
25092;DHT22;13082;52.374;4.946;2023-12-29T10:20:30;11.60;99.90
25092;DHT22;13082;52.374;4.946;2023-12-29T10:25:32;11.60;99.90
25092;DHT22;13082;52.374;4.946;2023-12-29T10:27:58;11.70;99.90
25092;DHT22;13082;52.374;4.946;2023-12-29T10:30:24;11.70;99.90
25092;DHT22;13082;52.374;4.946;2023-12-29T10:32:50;11.70;99.90
25092;DHT22;13082;52.374;4.946;2023-12-29T10:35:17;11.70;99.90
25092;DHT22;13082;52.374;4.946;2023-12-29T10:37:43;11.70;99.90
25092;DHT22;13082;52.374;4.946;2023-12-29T10:40:10;11.80;99.90
25092;DHT22;13082;52.374;4.946;2023-12-29T10:42:52;11.70;99.90
25092;DHT22;13082;52.374;4.946;2023-12-29T10:45:18;11.80;99.90
25092;DHT22;13082;52.374;4.946;2023-12-29T10:47:44;11.80;99.90
25092;DHT22;13082;52.374;4.946;2023-12-29T10:50:10;11.80;99.90
25092;DHT22;13082;52.374;4.946;2023-12-29T10:52:35;11.80;99.90
25092;DHT22;13082;52.374;4.946;2023-12-29T10:55:10;11.80;99.90
25092;DHT22;13082;52.374;4.946;2023-12-29T10:57:37;11.80;99.90
25092;DHT22;13082;52.374;4.946;2023-12-29T11:00:04;11.80;99.90
25092;DHT22;13082;52.374;4.946;2023-12-29T11:02:31;11.80;99.90
25092;DHT22;13082;52.374;4.946;2023-12-29T11:05:09;11.80;99.90
25092;DHT22;13082;52.374;4.946;2023-12-29T11:07:41;11.80;99.90
25092;DHT22;13082;52.374;4.946;2023-12-29T11:10:08;11.80;99.90
25092;DHT22;13082;52.374;4.946;2023-12-29T11:12:35;11.90;99.90
25092;DHT22;13082;52.374;4.946;2023-12-29T11:15:06;11.90;99.90
25092;DHT22;13082;52.374;4.946;2023-12-29T11:17:34;11.80;99.90
25092;DHT22;13082;52.374;4.946;2023-12-29T11:20:01;11.80;99.90
25092;DHT22;13082;52.374;4.946;2023-12-29T11:22:29;11.80;99.90
25092;DHT22;13082;52.374;4.946;2023-12-29T11:24:58;11.70;99.90
25092;DHT22;13082;52.374;4.946;2023-12-29T11:27:29;11.70;99.90
25092;DHT22;13082;52.374;4.946;2023-12-29T11:29:59;11.70;99.90
25092;DHT22;13082;52.374;4.946;2023-12-29T11:32:48;11.60;99.90
25092;DHT22;13082;52.374;4.946;2023-12-29T11:35:20;11.70;99.90
25092;DHT22;13082;52.374;4.946;2023-12-29T11:40:30;11.60;99.90
25092;DHT22;13082;52.374;4.946;2023-12-29T11:43:00;11.70;99.90
25092;DHT22;13082;52.374;4.946;2023-12-29T11:45:33;11.70;99.90
25092;DHT22;13082;52.374;4.946;2023-12-29T11:48:02;11.70;99.90
25092;DHT22;13082;52.374;4.946;2023-12-29T11:50:30;11.70;99.90
25092;DHT22;13082;52.374;4.946;2023-12-29T11:52:56;11.80;99.90
25092;DHT22;13082;52.374;4.946;2023-12-29T11:55:28;11.70;99.90
25092;DHT22;13082;52.374;4.946;2023-12-29T11:57:54;11.70;99.90
25092;DHT22;13082;52.374;4.946;2023-12-29T12:00:20;11.70;99.90
25092;DHT22;13082;52.374;4.946;2023-12-29T12:02:46;11.80;99.90
25092;DHT22;13082;52.374;4.946;2023-12-29T12:05:46;11.80;99.90
25092;DHT22;13082;52.374;4.946;2023-12-29T12:08:32;11.70;99.90
25092;DHT22;13082;52.374;4.946;2023-12-29T12:13:55;11.80;99.90
25092;DHT22;13082;52.374;4.946;2023-12-29T12:19:10;11.80;99.90
25092;DHT22;13082;52.374;4.946;2023-12-29T12:21:37;11.70;99.90
25092;DHT22;13082;52.374;4.946;2023-12-29T12:24:04;11.70;99.90
25092;DHT22;13082;52.374;4.946;2023-12-29T12:26:30;11.60;99.90
25092;DHT22;13082;52.374;4.946;2023-12-29T12:28:57;11.60;99.90
25092;DHT22;13082;52.374;4.946;2023-12-29T12:31:22;11.60;99.90
25092;DHT22;13082;52.374;4.946;2023-12-29T12:33:55;11.60;99.90
25092;DHT22;13082;52.374;4.946;2023-12-29T12:36:21;11.60;99.90
25092;DHT22;13082;52.374;4.946;2023-12-29T12:38:54;11.60;99.90
25092;DHT22;13082;52.374;4.946;2023-12-29T12:41:24;11.70;99.90
25092;DHT22;13082;52.374;4.946;2023-12-29T12:46:26;11.60;99.90
25092;DHT22;13082;52.374;4.946;2023-12-29T12:48:52;11.50;99.90
25092;DHT22;13082;52.374;4.946;2023-12-29T12:51:20;11.60;99.90
25092;DHT22;13082;52.374;4.946;2023-12-29T12:53:47;11.60;99.90
25092;DHT22;13082;52.374;4.946;2023-12-29T12:56:15;11.60;99.90
25092;DHT22;13082;52.374;4.946;2023-12-29T12:58:42;11.60;99.90
25092;DHT22;13082;52.374;4.946;2023-12-29T13:01:08;11.60;99.90
25092;DHT22;13082;52.374;4.946;2023-12-29T13:03:34;11.70;99.90
25092;DHT22;13082;52.374;4.946;2023-12-29T13:06:02;11.80;99.90
25092;DHT22;13082;52.374;4.946;2023-12-29T13:08:30;11.80;99.90
25092;DHT22;13082;52.374;4.946;2023-12-29T13:10:58;11.80;99.90
25092;DHT22;13082;52.374;4.946;2023-12-29T13:13:38;11.80;99.90
25092;DHT22;13082;52.374;4.946;2023-12-29T13:16:04;11.70;99.90
25092;DHT22;13082;52.374;4.946;2023-12-29T13:18:30;11.70;99.90
25092;DHT22;13082;52.374;4.946;2023-12-29T13:20:57;11.80;99.90
25092;DHT22;13082;52.374;4.946;2023-12-29T13:23:26;11.80;99.90
25092;DHT22;13082;52.374;4.946;2023-12-29T13:25:56;11.80;99.90
25092;DHT22;13082;52.374;4.946;2023-12-29T13:28:22;11.70;99.90
25092;DHT22;13082;52.374;4.946;2023-12-29T13:30:49;11.70;99.90
25092;DHT22;13082;52.374;4.946;2023-12-29T13:33:25;11.70;99.90
25092;DHT22;13082;52.374;4.946;2023-12-29T13:36:05;11.70;99.90
25092;DHT22;13082;52.374;4.946;2023-12-29T13:38:41;11.60;99.90
25092;DHT22;13082;52.374;4.946;2023-12-29T13:41:11;11.60;99.90
25092;DHT22;13082;52.374;4.946;2023-12-29T13:43:39;11.60;99.90
25092;DHT22;13082;52.374;4.946;2023-12-29T13:46:08;11.50;99.90
25092;DHT22;13082;52.374;4.946;2023-12-29T13:48:35;11.50;99.90
25092;DHT22;13082;52.374;4.946;2023-12-29T13:51:01;11.60;99.90
25092;DHT22;13082;52.374;4.946;2023-12-29T13:53:26;11.50;99.90
25092;DHT22;13082;52.374;4.946;2023-12-29T13:55:52;11.50;99.90
25092;DHT22;13082;52.374;4.946;2023-12-29T13:58:18;11.50;99.90
25092;DHT22;13082;52.374;4.946;2023-12-29T14:00:46;11.60;99.90
25092;DHT22;13082;52.374;4.946;2023-12-29T14:05:55;11.60;99.90
25092;DHT22;13082;52.374;4.946;2023-12-29T14:08:39;11.60;99.90
25092;DHT22;13082;52.374;4.946;2023-12-29T14:11:11;11.60;99.90
25092;DHT22;13082;52.374;4.946;2023-12-29T14:13:44;11.50;99.90
25092;DHT22;13082;52.374;4.946;2023-12-29T14:16:11;11.50;99.90
25092;DHT22;13082;52.374;4.946;2023-12-29T14:21:43;11.50;99.90
25092;DHT22;13082;52.374;4.946;2023-12-29T14:24:11;11.50;99.90
25092;DHT22;13082;52.374;4.946;2023-12-29T14:26:38;11.50;99.90
25092;DHT22;13082;52.374;4.946;2023-12-29T14:29:06;11.40;99.90
25092;DHT22;13082;52.374;4.946;2023-12-29T14:31:35;11.40;99.90
25092;DHT22;13082;52.374;4.946;2023-12-29T14:34:02;11.40;99.90
25092;DHT22;13082;52.374;4.946;2023-12-29T14:36:29;11.40;99.90
25092;DHT22;13082;52.374;4.946;2023-12-29T14:38:54;11.40;99.90
25092;DHT22;13082;52.374;4.946;2023-12-29T14:41:20;11.20;99.90
25092;DHT22;13082;52.374;4.946;2023-12-29T14:43:46;11.10;99.90
25092;DHT22;13082;52.374;4.946;2023-12-29T14:46:11;11.00;99.90
25092;DHT22;13082;52.374;4.946;2023-12-29T14:48:37;10.80;99.90
25092;DHT22;13082;52.374;4.946;2023-12-29T14:51:04;10.90;99.90
25092;DHT22;13082;52.374;4.946;2023-12-29T14:53:30;10.70;99.90
25092;DHT22;13082;52.374;4.946;2023-12-29T14:55:56;10.70;99.90
25092;DHT22;13082;52.374;4.946;2023-12-29T14:58:22;10.60;99.90
25092;DHT22;13082;52.374;4.946;2023-12-29T15:00:47;10.60;99.90
25092;DHT22;13082;52.374;4.946;2023-12-29T15:03:13;10.60;99.90
25092;DHT22;13082;52.374;4.946;2023-12-29T15:05:45;10.50;99.90
25092;DHT22;13082;52.374;4.946;2023-12-29T15:08:11;10.50;99.90
25092;DHT22;13082;52.374;4.946;2023-12-29T15:10:37;10.50;99.90
25092;DHT22;13082;52.374;4.946;2023-12-29T15:13:03;10.60;99.90
25092;DHT22;13082;52.374;4.946;2023-12-29T15:15:30;10.60;99.90
25092;DHT22;13082;52.374;4.946;2023-12-29T15:17:56;10.60;99.90
25092;DHT22;13082;52.374;4.946;2023-12-29T15:20:21;10.60;99.90
25092;DHT22;13082;52.374;4.946;2023-12-29T15:22:47;10.70;99.90
25092;DHT22;13082;52.374;4.946;2023-12-29T15:25:14;10.70;99.90
25092;DHT22;13082;52.374;4.946;2023-12-29T15:27:40;10.60;99.90
25092;DHT22;13082;52.374;4.946;2023-12-29T15:30:06;10.50;99.90
25092;DHT22;13082;52.374;4.946;2023-12-29T15:32:32;10.40;99.90
25092;DHT22;13082;52.374;4.946;2023-12-29T15:34:57;10.20;99.90
25092;DHT22;13082;52.374;4.946;2023-12-29T15:37:23;10.10;99.90
25092;DHT22;13082;52.374;4.946;2023-12-29T15:39:49;9.90;99.90
25092;DHT22;13082;52.374;4.946;2023-12-29T15:42:15;10.00;99.90
25092;DHT22;13082;52.374;4.946;2023-12-29T15:44:40;9.90;99.90
25092;DHT22;13082;52.374;4.946;2023-12-29T15:47:06;9.80;99.90
25092;DHT22;13082;52.374;4.946;2023-12-29T15:49:32;9.60;99.90
25092;DHT22;13082;52.374;4.946;2023-12-29T15:51:58;9.50;99.90